sensor_id;sensor_type;location;lat;lon;timestamp;pressure;altitude;pressure_sealevel;temperature;humidity
69402;BME280;56589;51.992;5.924;2022-10-18T00:01:42;102023.72;;;15.62;86.67
69402;BME280;56589;51.992;5.924;2022-10-18T00:04:08;102020.22;;;15.62;86.63
69402;BME280;56589;51.992;5.924;2022-10-18T00:06:34;102020.97;;;15.64;86.28
69402;BME280;56589;51.992;5.924;2022-10-18T00:09:00;102015.78;;;15.62;86.70
69402;BME280;56589;51.992;5.924;2022-10-18T00:11:25;102010.47;;;15.62;86.79
69402;BME280;56589;51.992;5.924;2022-10-18T00:13:51;102006.97;;;15.62;86.67
69402;BME280;56589;51.992;5.924;2022-10-18T00:16:17;102015.69;;;15.64;86.54
69402;BME280;56589;51.992;5.924;2022-10-18T00:18:46;102004.25;;;15.63;86.27
69402;BME280;56589;51.992;5.924;2022-10-18T00:21:14;102006.03;;;15.63;86.69
69402;BME280;56589;51.992;5.924;2022-10-18T00:23:41;102006.03;;;15.63;86.60
69402;BME280;56589;51.992;5.924;2022-10-18T00:26:11;102010.47;;;15.62;86.82
69402;BME280;56589;51.992;5.924;2022-10-18T00:28:39;102006.97;;;15.62;86.38
69402;BME280;56589;51.992;5.924;2022-10-18T00:31:13;102007.75;;;15.64;87.08
69402;BME280;56589;51.992;5.924;2022-10-18T00:33:49;101999.81;;;15.64;86.82
69402;BME280;56589;51.992;5.924;2022-10-18T00:36:16;102004.16;;;15.65;86.32
69402;BME280;56589;51.992;5.924;2022-10-18T00:38:43;102010.28;;;15.65;86.55
69402;BME280;56589;51.992;5.924;2022-10-18T00:41:12;102005.09;;;15.64;86.30
69402;BME280;56589;51.992;5.924;2022-10-18T00:43:51;102013.03;;;15.64;86.47
69402;BME280;56589;51.992;5.924;2022-10-18T00:46:19;102006.13;;;15.61;86.26
69402;BME280;56589;51.992;5.924;2022-10-18T00:48:48;102009.53;;;15.63;86.37
69402;BME280;56589;51.992;5.924;2022-10-18T00:51:17;102009.53;;;15.63;86.52
69402;BME280;56589;51.992;5.924;2022-10-18T00:53:46;102005.19;;;15.62;86.44
69402;BME280;56589;51.992;5.924;2022-10-18T00:56:12;102013.22;;;15.61;86.46
69402;BME280;56589;51.992;5.924;2022-10-18T00:58:38;102008.78;;;15.61;86.17
69402;BME280;56589;51.992;5.924;2022-10-18T01:01:07;102022.97;;;15.60;86.40
69402;BME280;56589;51.992;5.924;2022-10-18T01:03:34;102014.19;;;15.60;86.57
69402;BME280;56589;51.992;5.924;2022-10-18T01:06:06;102009.00;;;15.58;86.37
69402;BME280;56589;51.992;5.924;2022-10-18T01:08:45;102007.19;;;15.59;86.43
69402;BME280;56589;51.992;5.924;2022-10-18T01:11:32;102009.00;;;15.58;86.18
69402;BME280;56589;51.992;5.924;2022-10-18T01:14:33;102002.94;;;15.56;86.09
69402;BME280;56589;51.992;5.924;2022-10-18T01:17:12;102003.88;;;15.55;86.58
69402;BME280;56589;51.992;5.924;2022-10-18T01:20:02;102012.88;;;15.53;86.33
69402;BME280;56589;51.992;5.924;2022-10-18T01:22:48;102014.88;;;15.49;86.33
69402;BME280;56589;51.992;5.924;2022-10-18T01:25:29;102010.53;;;15.48;86.34
69402;BME280;56589;51.992;5.924;2022-10-18T01:28:12;102017.63;;;15.48;86.25
69402;BME280;56589;51.992;5.924;2022-10-18T01:30:53;102016.78;;;15.47;86.48
69402;BME280;56589;51.992;5.924;2022-10-18T01:33:32;102016.78;;;15.47;86.20
69402;BME280;56589;51.992;5.924;2022-10-18T01:36:08;102022.25;;;15.44;85.86
69402;BME280;56589;51.992;5.924;2022-10-18T01:38:41;102021.34;;;15.45;86.42
69402;BME280;56589;51.992;5.924;2022-10-18T01:41:10;102008.94;;;15.46;86.23
69402;BME280;56589;51.992;5.924;2022-10-18T01:43:39;102008.94;;;15.46;86.46
69402;BME280;56589;51.992;5.924;2022-10-18T01:46:10;102016.78;;;15.47;86.43
69402;BME280;56589;51.992;5.924;2022-10-18T01:48:42;102011.50;;;15.47;86.21
69402;BME280;56589;51.992;5.924;2022-10-18T01:51:08;102015.09;;;15.46;86.23
69402;BME280;56589;51.992;5.924;2022-10-18T01:53:35;102018.69;;;15.45;86.12
69402;BME280;56589;51.992;5.924;2022-10-18T01:56:13;102016.97;;;15.44;86.48
69402;BME280;56589;51.992;5.924;2022-10-18T01:58:56;102010.19;;;15.40;85.81
69402;BME280;56589;51.992;5.924;2022-10-18T02:01:42;102016.53;;;15.37;86.09
69402;BME280;56589;51.992;5.924;2022-10-18T02:04:25;102013.13;;;15.35;86.31
69402;BME280;56589;51.992;5.924;2022-10-18T02:07:02;102025.69;;;15.32;85.99
69402;BME280;56589;51.992;5.924;2022-10-18T02:09:36;102015.31;;;15.29;85.77
69402;BME280;56589;51.992;5.924;2022-10-18T02:12:06;102011.94;;;15.27;86.14
69402;BME280;56589;51.992;5.924;2022-10-18T02:14:37;102012.00;;;15.25;86.19
69402;BME280;56589;51.992;5.924;2022-10-18T02:17:09;102015.72;;;15.23;86.04
69402;BME280;56589;51.992;5.924;2022-10-18T02:19:46;102019.31;;;15.22;86.02
69402;BME280;56589;51.992;5.924;2022-10-18T02:22:17;102021.28;;;15.18;85.67
69402;BME280;56589;51.992;5.924;2022-10-18T02:24:48;102012.72;;;15.15;85.68
69402;BME280;56589;51.992;5.924;2022-10-18T02:27:17;102019.88;;;15.12;85.68
69402;BME280;56589;51.992;5.924;2022-10-18T02:29:44;102017.44;;;15.09;86.03
69402;BME280;56589;51.992;5.924;2022-10-18T02:32:17;102021.06;;;15.08;86.20
69402;BME280;56589;51.992;5.924;2022-10-18T02:34:55;102025.78;;;15.03;85.76
69402;BME280;56589;51.992;5.924;2022-10-18T02:37:27;102020.75;;;14.99;85.96
69402;BME280;56589;51.992;5.924;2022-10-18T02:39:57;102019.19;;;14.96;85.90
69402;BME280;56589;51.992;5.924;2022-10-18T02:42:23;102018.88;;;14.87;85.75
69402;BME280;56589;51.992;5.924;2022-10-18T02:44:49;102023.44;;;14.84;85.76
69402;BME280;56589;51.992;5.924;2022-10-18T02:47:17;102015.56;;;14.83;86.10
69402;BME280;56589;51.992;5.924;2022-10-18T02:49:43;102024.47;;;14.82;85.72
69402;BME280;56589;51.992;5.924;2022-10-18T02:52:09;102012.19;;;14.81;85.88
69402;BME280;56589;51.992;5.924;2022-10-18T02:54:34;102012.09;;;14.82;86.11
69402;BME280;56589;51.992;5.924;2022-10-18T02:57:00;102012.19;;;14.81;85.77
69402;BME280;56589;51.992;5.924;2022-10-18T02:59:26;102019.28;;;14.80;86.13
69402;BME280;56589;51.992;5.924;2022-10-18T03:01:51;102021.19;;;14.78;86.30
69402;BME280;56589;51.992;5.924;2022-10-18T03:04:20;102019.44;;;14.77;85.90
69402;BME280;56589;51.992;5.924;2022-10-18T03:06:48;102017.75;;;14.76;86.07
69402;BME280;56589;51.992;5.924;2022-10-18T03:09:14;102010.66;;;14.77;86.27
69402;BME280;56589;51.992;5.924;2022-10-18T03:11:40;102013.41;;;14.75;85.61
69402;BME280;56589;51.992;5.924;2022-10-18T03:14:05;102010.03;;;14.73;86.03
69402;BME280;56589;51.992;5.924;2022-10-18T03:16:31;102014.47;;;14.73;85.67
69402;BME280;56589;51.992;5.924;2022-10-18T03:18:57;102015.41;;;14.72;85.73
69402;BME280;56589;51.992;5.924;2022-10-18T03:21:25;102012.94;;;14.69;85.53
69402;BME280;56589;51.992;5.924;2022-10-18T03:23:51;102013.91;;;14.68;85.59
69402;BME280;56589;51.992;5.924;2022-10-18T03:26:17;102021.94;;;14.66;85.93
69402;BME280;56589;51.992;5.924;2022-10-18T03:28:42;102027.38;;;14.63;85.86
69402;BME280;56589;51.992;5.924;2022-10-18T03:31:08;102016.16;;;14.59;85.68
69402;BME280;56589;51.992;5.924;2022-10-18T03:33:34;102028.41;;;14.61;85.99
69402;BME280;56589;51.992;5.924;2022-10-18T03:36:00;102033.69;;;14.61;85.41
69402;BME280;56589;51.992;5.924;2022-10-18T03:38:28;102035.56;;;14.58;85.52
69402;BME280;56589;51.992;5.924;2022-10-18T03:40:54;102031.31;;;14.56;85.77
69402;BME280;56589;51.992;5.924;2022-10-18T03:43:20;102027.00;;;14.55;85.78
69402;BME280;56589;51.992;5.924;2022-10-18T03:45:46;102024.44;;;14.53;85.83
69402;BME280;56589;51.992;5.924;2022-10-18T03:48:14;102022.06;;;14.49;85.60
69402;BME280;56589;51.992;5.924;2022-10-18T03:50:39;102028.47;;;14.45;85.98
69402;BME280;56589;51.992;5.924;2022-10-18T03:53:06;102025.94;;;14.43;85.62
69402;BME280;56589;51.992;5.924;2022-10-18T03:55:35;102025.19;;;14.41;86.19
69402;BME280;56589;51.992;5.924;2022-10-18T03:58:01;102020.06;;;14.38;86.22
69402;BME280;56589;51.992;5.924;2022-10-18T04:00:27;102020.06;;;14.38;85.76
69402;BME280;56589;51.992;5.924;2022-10-18T04:02:53;102020.28;;;14.35;85.87
69402;BME280;56589;51.992;5.924;2022-10-18T04:05:19;102017.69;;;14.33;86.11
69402;BME280;56589;51.992;5.924;2022-10-18T04:07:45;102016.94;;;14.31;85.87
69402;BME280;56589;51.992;5.924;2022-10-18T04:10:10;102017.91;;;14.30;85.93
69402;BME280;56589;51.992;5.924;2022-10-18T04:12:39;102020.44;;;14.32;86.19
69402;BME280;56589;51.992;5.924;2022-10-18T04:15:06;102029.22;;;14.32;86.42
69402;BME280;56589;51.992;5.924;2022-10-18T04:17:32;102020.34;;;14.33;86.12
69402;BME280;56589;51.992;5.924;2022-10-18T04:19:58;102025.63;;;14.33;86.11
69402;BME280;56589;51.992;5.924;2022-10-18T04:22:24;102021.38;;;14.31;86.31
69402;BME280;56589;51.992;5.924;2022-10-18T04:24:50;102020.63;;;14.29;86.11
69402;BME280;56589;51.992;5.924;2022-10-18T04:27:15;102019.78;;;14.28;86.22
69402;BME280;56589;51.992;5.924;2022-10-18T04:29:44;102018.00;;;14.29;86.20
69402;BME280;56589;51.992;5.924;2022-10-18T04:32:09;102013.63;;;14.28;86.12
69402;BME280;56589;51.992;5.924;2022-10-18T04:34:35;102018.06;;;14.27;86.38
69402;BME280;56589;51.992;5.924;2022-10-18T04:37:01;102018.16;;;14.26;86.26
69402;BME280;56589;51.992;5.924;2022-10-18T04:39:27;102018.25;;;14.24;86.02
69402;BME280;56589;51.992;5.924;2022-10-18T04:41:53;102021.00;;;14.23;85.86
69402;BME280;56589;51.992;5.924;2022-10-18T04:44:19;102007.03;;;14.21;85.77
69402;BME280;56589;51.992;5.924;2022-10-18T04:46:47;102014.19;;;14.19;86.08
69402;BME280;56589;51.992;5.924;2022-10-18T04:49:13;102014.38;;;14.16;86.07
69402;BME280;56589;51.992;5.924;2022-10-18T04:51:38;102020.78;;;14.12;86.25
69402;BME280;56589;51.992;5.924;2022-10-18T04:54:04;102021.06;;;14.07;86.33
69402;BME280;56589;51.992;5.924;2022-10-18T04:56:30;102016.72;;;14.06;85.92
69402;BME280;56589;51.992;5.924;2022-10-18T04:58:57;102024.75;;;14.04;86.22
69402;BME280;56589;51.992;5.924;2022-10-18T05:01:23;102028.22;;;14.05;85.94
69402;BME280;56589;51.992;5.924;2022-10-18T05:03:53;102028.28;;;14.03;86.14
69402;BME280;56589;51.992;5.924;2022-10-18T05:06:19;102031.13;;;14.00;86.37
69402;BME280;56589;51.992;5.924;2022-10-18T05:08:46;102026.78;;;13.99;86.08
69402;BME280;56589;51.992;5.924;2022-10-18T05:11:11;102027.75;;;13.98;86.01
69402;BME280;56589;51.992;5.924;2022-10-18T05:13:37;102025.25;;;13.95;86.35
69402;BME280;56589;51.992;5.924;2022-10-18T05:16:03;102025.09;;;13.98;86.41
69402;BME280;56589;51.992;5.924;2022-10-18T05:18:29;102032.94;;;14.00;86.43
69402;BME280;56589;51.992;5.924;2022-10-18T05:20:57;102027.53;;;14.01;86.45
69402;BME280;56589;51.992;5.924;2022-10-18T05:23:24;102020.47;;;14.02;85.88
69402;BME280;56589;51.992;5.924;2022-10-18T05:25:50;102024.81;;;14.03;85.84
69402;BME280;56589;51.992;5.924;2022-10-18T05:28:16;102029.25;;;14.02;86.23
69402;BME280;56589;51.992;5.924;2022-10-18T05:30:42;102028.50;;;14.00;85.94
69402;BME280;56589;51.992;5.924;2022-10-18T05:33:08;102018.88;;;13.99;86.19
69402;BME280;56589;51.992;5.924;2022-10-18T05:35:34;102028.59;;;13.99;85.75
69402;BME280;56589;51.992;5.924;2022-10-18T05:38:04;102027.75;;;13.98;86.12
69402;BME280;56589;51.992;5.924;2022-10-18T05:40:30;102033.88;;;13.99;86.06
69402;BME280;56589;51.992;5.924;2022-10-18T05:42:56;102040.75;;;14.01;85.65
69402;BME280;56589;51.992;5.924;2022-10-18T05:45:22;102031.97;;;14.01;85.80
69402;BME280;56589;51.992;5.924;2022-10-18T05:47:48;102041.69;;;14.00;85.62
69402;BME280;56589;51.992;5.924;2022-10-18T05:50:13;102049.63;;;14.00;85.84
69402;BME280;56589;51.992;5.924;2022-10-18T05:52:42;102055.94;;;13.98;85.85
69402;BME280;56589;51.992;5.924;2022-10-18T05:55:10;102062.31;;;13.94;85.83
69402;BME280;56589;51.992;5.924;2022-10-18T05:57:36;102057.16;;;13.92;85.68
69402;BME280;56589;51.992;5.924;2022-10-18T06:00:03;102065.22;;;13.89;85.89
69402;BME280;56589;51.992;5.924;2022-10-18T06:02:29;102072.41;;;13.87;86.10
69402;BME280;56589;51.992;5.924;2022-10-18T06:04:55;102068.31;;;13.82;85.98
69402;BME280;56589;51.992;5.924;2022-10-18T06:07:21;102071.31;;;13.75;85.77
69402;BME280;56589;51.992;5.924;2022-10-18T06:09:47;102077.59;;;13.73;85.93
69402;BME280;56589;51.992;5.924;2022-10-18T06:12:15;102082.00;;;13.72;86.05
69402;BME280;56589;51.992;5.924;2022-10-18T06:14:42;102077.69;;;13.71;85.99
69402;BME280;56589;51.992;5.924;2022-10-18T06:17:07;102082.97;;;13.71;85.96
69402;BME280;56589;51.992;5.924;2022-10-18T06:19:33;102087.59;;;13.68;85.72
69402;BME280;56589;51.992;5.924;2022-10-18T06:21:59;102096.59;;;13.64;86.04
69402;BME280;56589;51.992;5.924;2022-10-18T06:24:25;102093.34;;;13.59;86.10
69402;BME280;56589;51.992;5.924;2022-10-18T06:26:50;102093.53;;;13.56;85.75
69402;BME280;56589;51.992;5.924;2022-10-18T06:29:19;102092.16;;;13.48;85.46
69402;BME280;56589;51.992;5.924;2022-10-18T06:31:44;102101.16;;;13.44;85.61
69402;BME280;56589;51.992;5.924;2022-10-18T06:34:10;102110.34;;;13.37;85.87
69402;BME280;56589;51.992;5.924;2022-10-18T06:36:36;102103.72;;;13.30;86.11
69402;BME280;56589;51.992;5.924;2022-10-18T06:39:02;102108.63;;;13.20;85.74
69402;BME280;56589;51.992;5.924;2022-10-18T06:41:28;102102.84;;;13.14;86.14
69402;BME280;56589;51.992;5.924;2022-10-18T06:43:54;102106.47;;;13.11;86.54
69402;BME280;56589;51.992;5.924;2022-10-18T06:46:22;102116.16;;;13.11;86.52
69402;BME280;56589;51.992;5.924;2022-10-18T06:48:48;102115.41;;;13.09;86.06
69402;BME280;56589;51.992;5.924;2022-10-18T06:51:14;102131.31;;;13.07;86.78
69402;BME280;56589;51.992;5.924;2022-10-18T06:53:40;102135.66;;;13.08;86.51
69402;BME280;56589;51.992;5.924;2022-10-18T06:56:07;102135.66;;;13.08;86.12
69402;BME280;56589;51.992;5.924;2022-10-18T06:58:36;102132.25;;;13.06;86.32
69402;BME280;56589;51.992;5.924;2022-10-18T07:01:05;102130.69;;;13.02;86.65
69402;BME280;56589;51.992;5.924;2022-10-18T07:03:35;102143.03;;;13.02;86.07
69402;BME280;56589;51.992;5.924;2022-10-18T07:06:00;102152.88;;;12.98;86.51
69402;BME280;56589;51.992;5.924;2022-10-18T07:08:27;102158.41;;;12.93;86.17
69402;BME280;56589;51.992;5.924;2022-10-18T07:10:53;102161.19;;;12.90;86.31
69402;BME280;56589;51.992;5.924;2022-10-18T07:13:19;102147.31;;;12.87;86.14
69402;BME280;56589;51.992;5.924;2022-10-18T07:15:45;102157.94;;;12.85;86.02
69402;BME280;56589;51.992;5.924;2022-10-18T07:18:10;102165.84;;;12.85;86.30
69402;BME280;56589;51.992;5.924;2022-10-18T07:20:39;102166.63;;;12.87;86.27
69402;BME280;56589;51.992;5.924;2022-10-18T07:23:05;102173.34;;;12.93;86.82
69402;BME280;56589;51.992;5.924;2022-10-18T07:25:31;102174.16;;;12.95;86.28
69402;BME280;56589;51.992;5.924;2022-10-18T07:27:56;102175.00;;;12.95;86.69
69402;BME280;56589;51.992;5.924;2022-10-18T07:30:22;102174.22;;;12.93;86.77
69402;BME280;56589;51.992;5.924;2022-10-18T07:32:49;102175.94;;;12.94;86.55
69402;BME280;56589;51.992;5.924;2022-10-18T07:35:15;102187.31;;;12.95;86.45
69402;BME280;56589;51.992;5.924;2022-10-18T07:37:44;102175.94;;;12.94;86.56
69402;BME280;56589;51.992;5.924;2022-10-18T07:40:10;102178.47;;;12.96;86.39
69402;BME280;56589;51.992;5.924;2022-10-18T07:42:37;102182.72;;;12.98;86.43
69402;BME280;56589;51.992;5.924;2022-10-18T07:45:03;102179.94;;;13.02;86.72
69402;BME280;56589;51.992;5.924;2022-10-18T07:47:29;102170.16;;;13.04;86.30
69402;BME280;56589;51.992;5.924;2022-10-18T07:49:55;102179.63;;;13.08;86.72
69402;BME280;56589;51.992;5.924;2022-10-18T07:52:21;102182.94;;;13.11;86.42
69402;BME280;56589;51.992;5.924;2022-10-18T07:54:49;102200.41;;;13.14;86.45
69402;BME280;56589;51.992;5.924;2022-10-18T07:57:15;102195.03;;;13.15;86.63
69402;BME280;56589;51.992;5.924;2022-10-18T07:59:41;102197.53;;;13.18;86.38
69402;BME280;56589;51.992;5.924;2022-10-18T08:02:06;102195.56;;;13.22;86.40
69402;BME280;56589;51.992;5.924;2022-10-18T08:04:33;102190.16;;;13.25;86.26
69402;BME280;56589;51.992;5.924;2022-10-18T08:06:59;102197.78;;;13.30;86.17
69402;BME280;56589;51.992;5.924;2022-10-18T08:09:25;102203.78;;;13.33;86.27
69402;BME280;56589;51.992;5.924;2022-10-18T08:11:53;102208.81;;;13.38;85.84
69402;BME280;56589;51.992;5.924;2022-10-18T08:14:19;102208.72;;;13.39;86.03
69402;BME280;56589;51.992;5.924;2022-10-18T08:16:44;102209.44;;;13.43;85.67
69402;BME280;56589;51.992;5.924;2022-10-18T08:19:10;102226.66;;;13.50;85.89
69402;BME280;56589;51.992;5.924;2022-10-18T08:21:36;102231.69;;;13.55;85.87
69402;BME280;56589;51.992;5.924;2022-10-18T08:24:02;102232.28;;;13.60;85.36
69402;BME280;56589;51.992;5.924;2022-10-18T08:26:28;102226.84;;;13.63;85.18
69402;BME280;56589;51.992;5.924;2022-10-18T08:28:56;102234.53;;;13.67;85.01
69402;BME280;56589;51.992;5.924;2022-10-18T08:31:22;102227.28;;;13.71;84.64
69402;BME280;56589;51.992;5.924;2022-10-18T08:33:48;102232.41;;;13.74;84.29
69402;BME280;56589;51.992;5.924;2022-10-18T08:36:15;102241.19;;;13.74;84.35
69402;BME280;56589;51.992;5.924;2022-10-18T08:38:42;102232.22;;;13.77;83.98
69402;BME280;56589;51.992;5.924;2022-10-18T08:41:30;102240.84;;;13.81;84.28
69402;BME280;56589;51.992;5.924;2022-10-18T08:44:16;102238.88;;;13.84;84.23
69402;BME280;56589;51.992;5.924;2022-10-18T08:46:49;102240.56;;;13.85;83.91
69402;BME280;56589;51.992;5.924;2022-10-18T08:49:22;102241.38;;;13.87;83.96
69402;BME280;56589;51.992;5.924;2022-10-18T08:51:52;102241.13;;;13.92;83.83
69402;BME280;56589;51.992;5.924;2022-10-18T08:54:24;102239.25;;;13.94;83.52
69402;BME280;56589;51.992;5.924;2022-10-18T08:56:58;102245.03;;;14.00;83.35
69402;BME280;56589;51.992;5.924;2022-10-18T08:59:32;102249.03;;;14.08;83.69
69402;BME280;56589;51.992;5.924;2022-10-18T09:02:11;102256.63;;;14.14;83.13
69402;BME280;56589;51.992;5.924;2022-10-18T09:04:48;102247.50;;;14.19;83.12
69402;BME280;56589;51.992;5.924;2022-10-18T09:07:44;102238.47;;;14.23;82.74
69402;BME280;56589;51.992;5.924;2022-10-18T09:10:28;102242.72;;;14.26;82.94
69402;BME280;56589;51.992;5.924;2022-10-18T09:13:13;102241.63;;;14.30;82.19
69402;BME280;56589;51.992;5.924;2022-10-18T09:16:15;102246.81;;;14.31;81.58
69402;BME280;56589;51.992;5.924;2022-10-18T09:18:53;102242.28;;;14.33;81.56
69402;BME280;56589;51.992;5.924;2022-10-18T09:21:40;102247.50;;;14.35;80.72
69402;BME280;56589;51.992;5.924;2022-10-18T09:24:21;102243.81;;;14.38;80.40
69402;BME280;56589;51.992;5.924;2022-10-18T09:26:56;102247.06;;;14.43;80.45
69402;BME280;56589;51.992;5.924;2022-10-18T09:29:39;102253.69;;;14.50;80.53
69402;BME280;56589;51.992;5.924;2022-10-18T09:32:30;102259.47;;;14.56;79.40
69402;BME280;56589;51.992;5.924;2022-10-18T09:35:13;102251.28;;;14.61;79.87
69402;BME280;56589;51.992;5.924;2022-10-18T09:37:46;102245.50;;;14.70;79.92
69402;BME280;56589;51.992;5.924;2022-10-18T09:40:16;102254.69;;;14.79;79.46
69402;BME280;56589;51.992;5.924;2022-10-18T09:42:53;102255.09;;;14.87;79.20
69402;BME280;56589;51.992;5.924;2022-10-18T09:45:26;102262.56;;;14.95;78.99
69402;BME280;56589;51.992;5.924;2022-10-18T09:48:02;102267.44;;;15.02;78.28
69402;BME280;56589;51.992;5.924;2022-10-18T09:50:38;102262.53;;;15.10;77.28
69402;BME280;56589;51.992;5.924;2022-10-18T09:53:16;102272.53;;;15.20;77.06
69402;BME280;56589;51.992;5.924;2022-10-18T09:55:58;102273.13;;;15.25;75.30
69402;BME280;56589;51.992;5.924;2022-10-18T09:58:39;102273.03;;;15.26;74.86
69402;BME280;56589;51.992;5.924;2022-10-18T10:01:07;102274.44;;;15.32;74.95
69402;BME280;56589;51.992;5.924;2022-10-18T10:03:38;102265.97;;;15.41;74.63
69402;BME280;56589;51.992;5.924;2022-10-18T10:06:23;102281.84;;;15.55;73.85
69402;BME280;56589;51.992;5.924;2022-10-18T10:08:59;102275.16;;;15.64;74.29
69402;BME280;56589;51.992;5.924;2022-10-18T10:11:33;102275.47;;;15.74;74.37
69402;BME280;56589;51.992;5.924;2022-10-18T10:14:12;102266.19;;;15.81;72.66
69402;BME280;56589;51.992;5.924;2022-10-18T10:16:46;102281.63;;;15.88;72.49
69402;BME280;56589;51.992;5.924;2022-10-18T10:19:21;102278.66;;;15.93;71.31
69402;BME280;56589;51.992;5.924;2022-10-18T10:21:59;102269.78;;;15.94;71.12
69402;BME280;56589;51.992;5.924;2022-10-18T10:24:36;102274.50;;;16.03;71.62
69402;BME280;56589;51.992;5.924;2022-10-18T10:27:17;102282.63;;;16.14;70.49
69402;BME280;56589;51.992;5.924;2022-10-18T10:29:56;102280.31;;;16.23;69.84
69402;BME280;56589;51.992;5.924;2022-10-18T10:32:28;102288.72;;;16.29;69.86
69402;BME280;56589;51.992;5.924;2022-10-18T10:34:58;102276.69;;;16.38;69.60
69402;BME280;56589;51.992;5.924;2022-10-18T10:37:27;102278.16;;;16.42;68.73
69402;BME280;56589;51.992;5.924;2022-10-18T10:40:22;102283.84;;;16.50;67.37
69402;BME280;56589;51.992;5.924;2022-10-18T10:43:13;102284.38;;;16.55;67.14
69402;BME280;56589;51.992;5.924;2022-10-18T10:45:53;102284.06;;;16.60;66.46
69402;BME280;56589;51.992;5.924;2022-10-18T10:48:22;102290.03;;;16.63;67.29
69402;BME280;56589;51.992;5.924;2022-10-18T10:50:55;102288.59;;;16.72;66.95
69402;BME280;56589;51.992;5.924;2022-10-18T10:53:28;102297.00;;;16.79;66.76
69402;BME280;56589;51.992;5.924;2022-10-18T10:55:59;102298.63;;;16.81;65.46
69402;BME280;56589;51.992;5.924;2022-10-18T10:58:29;102300.09;;;16.85;65.44
69402;BME280;56589;51.992;5.924;2022-10-18T11:01:16;102302.34;;;16.91;63.80
69402;BME280;56589;51.992;5.924;2022-10-18T11:03:53;102306.50;;;16.95;63.88
69402;BME280;56589;51.992;5.924;2022-10-18T11:06:39;102287.94;;;16.95;62.13
69402;BME280;56589;51.992;5.924;2022-10-18T11:09:21;102293.78;;;17.01;64.24
69402;BME280;56589;51.992;5.924;2022-10-18T11:12:02;102291.69;;;17.06;63.04
69402;BME280;56589;51.992;5.924;2022-10-18T11:14:40;102298.38;;;17.11;63.56
69402;BME280;56589;51.992;5.924;2022-10-18T11:17:18;102306.78;;;17.18;63.78
69402;BME280;56589;51.992;5.924;2022-10-18T11:20:07;102306.03;;;17.29;62.46
69402;BME280;56589;51.992;5.924;2022-10-18T11:22:48;102302.31;;;17.31;61.29
69402;BME280;56589;51.992;5.924;2022-10-18T11:25:26;102303.72;;;17.37;61.83
69402;BME280;56589;51.992;5.924;2022-10-18T11:28:05;102308.69;;;17.41;61.63
69402;BME280;56589;51.992;5.924;2022-10-18T11:30:47;102305.53;;;17.49;60.79
69402;BME280;56589;51.992;5.924;2022-10-18T11:33:30;102302.34;;;17.57;61.31
69402;BME280;56589;51.992;5.924;2022-10-18T11:36:08;102300.09;;;17.63;61.14
69402;BME280;56589;51.992;5.924;2022-10-18T11:38:49;102304.91;;;17.71;59.91
69402;BME280;56589;51.992;5.924;2022-10-18T11:41:30;102299.38;;;17.74;58.53
69402;BME280;56589;51.992;5.924;2022-10-18T11:44:01;102292.47;;;17.71;59.23
69402;BME280;56589;51.992;5.924;2022-10-18T11:46:46;102288.66;;;17.75;57.82
69402;BME280;56589;51.992;5.924;2022-10-18T11:49:37;102291.31;;;17.75;59.12
69402;BME280;56589;51.992;5.924;2022-10-18T11:52:22;102288.53;;;17.77;58.55
69402;BME280;56589;51.992;5.924;2022-10-18T11:55:08;102284.47;;;17.84;58.25
69402;BME280;56589;51.992;5.924;2022-10-18T11:57:48;102289.28;;;17.92;58.11
69402;BME280;56589;51.992;5.924;2022-10-18T12:00:32;102287.03;;;17.98;57.83
69402;BME280;56589;51.992;5.924;2022-10-18T12:03:17;102290.19;;;18.03;58.10
69402;BME280;56589;51.992;5.924;2022-10-18T12:05:51;102288.16;;;18.07;57.93
69402;BME280;56589;51.992;5.924;2022-10-18T12:08:26;102275.09;;;18.04;57.64
69402;BME280;56589;51.992;5.924;2022-10-18T12:11:06;102272.31;;;18.05;57.43
69402;BME280;56589;51.992;5.924;2022-10-18T12:13:42;102276.34;;;18.11;56.99
69402;BME280;56589;51.992;5.924;2022-10-18T12:16:11;102279.19;;;18.21;57.42
69402;BME280;56589;51.992;5.924;2022-10-18T12:18:47;102277.88;;;18.26;57.37
69402;BME280;56589;51.992;5.924;2022-10-18T12:21:19;102273.47;;;18.38;57.88
69402;BME280;56589;51.992;5.924;2022-10-18T12:23:50;102275.09;;;18.41;57.15
69402;BME280;56589;51.992;5.924;2022-10-18T12:26:22;102278.25;;;18.46;56.35
69402;BME280;56589;51.992;5.924;2022-10-18T12:28:57;102274.50;;;18.48;56.05
69402;BME280;56589;51.992;5.924;2022-10-18T12:31:32;102272.81;;;18.47;56.18
69402;BME280;56589;51.992;5.924;2022-10-18T12:34:18;102271.22;;;18.45;55.38
69402;BME280;56589;51.992;5.924;2022-10-18T12:37:02;102277.50;;;18.44;55.10
69402;BME280;56589;51.992;5.924;2022-10-18T12:39:41;102277.94;;;18.38;54.37
69402;BME280;56589;51.992;5.924;2022-10-18T12:42:21;102270.81;;;18.38;54.11
69402;BME280;56589;51.992;5.924;2022-10-18T12:44:59;102277.94;;;18.38;53.90
69402;BME280;56589;51.992;5.924;2022-10-18T12:47:28;102269.84;;;18.39;54.47
69402;BME280;56589;51.992;5.924;2022-10-18T12:49:56;102266.13;;;18.42;54.69
69402;BME280;56589;51.992;5.924;2022-10-18T12:52:25;102270.50;;;18.43;55.36
69402;BME280;56589;51.992;5.924;2022-10-18T12:55:27;102273.53;;;18.49;53.86
69402;BME280;56589;51.992;5.924;2022-10-18T12:58:20;102272.44;;;18.41;54.01
69402;BME280;56589;51.992;5.924;2022-10-18T13:00:54;102275.28;;;18.38;53.70
69402;BME280;56589;51.992;5.924;2022-10-18T13:06:19;102271.78;;;18.37;50.80
69402;BME280;56589;51.992;5.924;2022-10-18T13:08:45;102263.69;;;18.39;50.93
69402;BME280;56589;51.992;5.924;2022-10-18T13:11:39;102260.81;;;18.42;49.70
69402;BME280;56589;51.992;5.924;2022-10-18T13:14:18;102256.34;;;18.42;50.50
69402;BME280;56589;51.992;5.924;2022-10-18T13:16:57;102254.53;;;18.43;51.01